Time;durP1;ratioP1;P1;durP2;ratioP2;P2;SDS_P1;SDS_P2;PMS_P1;PMS_P2;Temp;Humidity;BMP_temperature;BMP_pressure;BME280_temperature;BME280_humidity;BME280_pressure;Samples;Min_cycle;Max_cycle;Signal;HPM_P1;HPM_P2
2023/12/21 00:01:03;;;;;;;2.67;0.40;;;;;;;5.32;100.00;98579.63;5027177;28;20026;-56
2023/12/21 00:03:29;;;;;;;1.98;0.50;;;;;;;5.36;100.00;98587.16;5014932;28;20045;-56
2023/12/21 00:05:54;;;;;;;1.17;0.60;;;;;;;5.37;100.00;98588.00;5031014;28;20487;-57
2023/12/21 00:08:19;;;;;;;2.05;0.50;;;;;;;5.31;100.00;98581.47;5050199;28;20057;-57
2023/12/21 00:10:45;;;;;;;1.67;0.40;;;;;;;5.29;100.00;98575.44;5024947;28;20465;-56
2023/12/21 00:13:10;;;;;;;2.65;0.40;;;;;;;5.10;100.00;98573.22;5014826;28;20026;-56
2023/12/21 00:15:35;;;;;;;1.35;0.50;;;;;;;5.08;100.00;98575.22;5036670;28;20025;-57
2023/12/21 00:18:02;;;;;;;1.05;0.43;;;;;;;5.00;100.00;98573.41;5028577;28;20025;-56
2023/12/21 00:20:27;;;;;;;0.52;0.20;;;;;;;4.99;100.00;98559.16;5028845;28;20029;-56
2023/12/21 00:22:52;;;;;;;0.93;0.40;;;;;;;5.02;100.00;98560.66;5034159;28;20372;-56
2023/12/21 00:25:18;;;;;;;0.45;0.25;;;;;;;5.09;100.00;98561.66;5034355;28;20427;-55
2023/12/21 00:27:43;;;;;;;2.67;0.40;;;;;;;5.07;100.00;98552.94;5028325;28;20025;-56
2023/12/21 00:30:09;;;;;;;0.73;0.30;;;;;;;5.10;100.00;98560.63;5042821;28;20020;-55
2023/12/21 00:32:34;;;;;;;0.85;0.30;;;;;;;5.17;100.00;98563.47;5039505;28;20028;-56
2023/12/21 00:35:00;;;;;;;1.55;0.50;;;;;;;5.13;100.00;98567.50;5030656;28;20033;-57
2023/12/21 00:37:25;;;;;;;3.55;0.50;;;;;;;5.09;100.00;98572.38;5030158;28;20029;-57
2023/12/21 00:39:50;;;;;;;0.38;0.25;;;;;;;5.01;100.00;98573.25;5023319;28;20033;-56
2023/12/21 00:42:16;;;;;;;0.28;0.20;;;;;;;4.92;100.00;98568.91;5021633;28;20029;-56
2023/12/21 00:44:42;;;;;;;0.73;0.40;;;;;;;4.85;100.00;98565.25;5030328;28;20041;-56
2023/12/21 00:47:08;;;;;;;1.13;0.20;;;;;;;4.81;100.00;98569.28;5040955;28;20034;-56
2023/12/21 00:49:33;;;;;;;0.43;0.30;;;;;;;4.76;100.00;98569.78;5035168;28;20021;-56
2023/12/21 00:51:58;;;;;;;0.47;0.30;;;;;;;4.79;100.00;98565.94;5033792;28;20111;-57
2023/12/21 00:54:24;;;;;;;1.48;0.30;;;;;;;4.80;100.00;98560.41;5040930;28;20025;-56
2023/12/21 00:56:49;;;;;;;0.73;0.30;;;;;;;4.86;100.00;98547.34;5042542;28;20025;-56
2023/12/21 00:59:15;;;;;;;1.48;0.43;;;;;;;4.89;100.00;98541.63;5031887;28;20051;-56
2023/12/21 01:02:14;;;;;;;1.02;0.40;;;;;;;4.96;100.00;98537.25;5034648;28;20080;-57
2023/12/21 01:04:39;;;;;;;0.43;0.20;;;;;;;4.93;100.00;98522.34;5061949;23;20096;-77
2023/12/21 01:07:04;;;;;;;0.43;0.20;;;;;;;5.05;100.00;98512.88;5100047;28;20032;-77
2023/12/21 01:09:29;;;;;;;0.25;0.10;;;;;;;5.02;100.00;98504.38;5076190;28;20024;-77
2023/12/21 01:11:55;;;;;;;0.30;0.22;;;;;;;5.10;100.00;98498.13;5069761;28;20067;-76
2023/12/21 01:14:21;;;;;;;1.13;0.10;;;;;;;5.17;100.00;98488.38;5065222;28;20100;-76
2023/12/21 01:16:47;;;;;;;2.65;0.20;;;;;;;5.24;100.00;98492.84;5079341;28;20036;-76
2023/12/21 01:19:13;;;;;;;0.30;0.30;;;;;;;4.98;100.00;98439.56;5082532;28;20050;-76
2023/12/21 01:21:38;;;;;;;0.60;0.10;;;;;;;5.19;100.00;98465.72;5064120;28;20352;-76
2023/12/21 01:24:04;;;;;;;0.43;0.15;;;;;;;5.18;100.00;98458.69;5085663;28;20028;-76
2023/12/21 01:26:30;;;;;;;0.08;0.03;;;;;;;5.30;100.00;98479.75;5085764;28;20313;-77
2023/12/21 01:28:55;;;;;;;0.57;0.10;;;;;;;5.26;100.00;98476.56;5067464;28;20023;-76
2023/12/21 01:31:20;;;;;;;0.40;0.13;;;;;;;5.25;100.00;98456.97;5076329;28;20319;-76
2023/12/21 01:33:45;;;;;;;0.45;0.10;;;;;;;5.23;100.00;98450.09;5085429;28;20099;-76
2023/12/21 01:36:11;;;;;;;0.20;0.17;;;;;;;5.25;100.00;98448.09;5067710;28;20244;-76
2023/12/21 01:38:36;;;;;;;0.30;0.28;;;;;;;5.36;100.00;98469.13;5066163;28;20045;-76
2023/12/21 01:41:01;;;;;;;0.88;0.20;;;;;;;5.34;100.00;98457.72;5077762;28;20016;-77
2023/12/21 01:43:27;;;;;;;1.92;0.30;;;;;;;5.38;100.00;98468.97;5087117;28;20024;-76
2023/12/21 01:45:54;;;;;;;0.03;0.03;;;;;;;5.33;100.00;98449.88;5066842;28;20024;-77
2023/12/21 01:48:20;;;;;;;0.13;0.00;;;;;;;5.31;100.00;98439.31;5063913;28;20032;-77
2023/12/21 01:50:46;;;;;;;0.28;0.10;;;;;;;5.33;100.00;98434.63;5066929;28;20109;-76
2023/12/21 01:53:14;;;;;;;1.50;0.20;;;;;;;5.31;100.00;98428.59;5085128;28;20025;-76
2023/12/21 01:55:40;;;;;;;0.45;0.30;;;;;;;5.32;100.00;98416.88;5061595;28;20028;-76
2023/12/21 01:58:06;;;;;;;0.20;0.10;;;;;;;5.40;100.00;98421.34;5071620;28;20032;-78
2023/12/21 02:00:31;;;;;;;0.30;0.20;;;;;;;5.37;100.00;98411.81;5052991;28;20021;-77
2023/12/21 02:02:57;;;;;;;0.32;0.13;;;;;;;5.36;100.00;98402.06;5057722;28;20035;-77
2023/12/21 02:05:22;;;;;;;0.57;0.20;;;;;;;5.41;100.00;98407.72;5084796;28;20099;-76
2023/12/21 02:07:48;;;;;;;0.35;0.20;;;;;;;5.51;100.00;98415.53;5085031;28;20020;-76
2023/12/21 02:10:13;;;;;;;1.90;0.20;;;;;;;5.42;100.00;98397.81;5059146;28;20274;-76
2023/12/21 02:12:38;;;;;;;0.52;0.20;;;;;;;5.54;100.00;98414.34;5046926;28;20633;-78
2023/12/21 02:15:06;;;;;;;0.20;0.20;;;;;;;5.56;100.00;98412.31;5083799;28;20021;-75
2023/12/21 02:17:33;;;;;;;0.57;0.20;;;;;;;5.54;100.00;98400.94;5072271;28;20029;-77
2023/12/21 02:19:59;;;;;;;0.50;0.20;;;;;;;5.52;100.00;98385.00;5084072;28;20252;-78
2023/12/21 02:22:26;;;;;;;1.10;0.10;;;;;;;5.43;100.00;98368.16;5065253;28;20024;-77
2023/12/21 02:24:52;;;;;;;0.77;0.10;;;;;;;5.65;100.00;98392.44;5069241;28;20225;-78
2023/12/21 02:27:17;;;;;;;0.60;0.15;;;;;;;5.56;100.00;98375.56;5071488;28;20086;-77
2023/12/21 02:29:43;;;;;;;0.98;0.10;;;;;;;5.59;100.00;98366.34;5065562;28;20026;-77
2023/12/21 02:32:08;;;;;;;0.20;0.10;;;;;;;5.45;100.00;98336.59;5060552;28;20321;-77
2023/12/21 02:34:34;;;;;;;0.40;0.13;;;;;;;5.64;100.00;98351.34;5082221;28;20199;-77
2023/12/21 02:36:59;;;;;;;0.00;0.00;;;;;;;5.58;100.00;98346.72;5084221;28;20043;-77
2023/12/21 02:39:24;;;;;;;2.05;0.10;;;;;;;5.48;100.00;98335.41;5066531;28;20025;-78
2023/12/21 02:41:52;;;;;;;0.00;0.00;;;;;;;5.72;100.00;98362.00;5076105;28;20091;-76
2023/12/21 02:44:17;;;;;;;0.10;0.10;;;;;;;5.72;100.00;98367.38;5047473;28;20033;-77
2023/12/21 02:46:43;;;;;;;0.10;0.03;;;;;;;5.65;100.00;98353.00;5063340;28;20024;-76
2023/12/21 02:49:08;;;;;;;0.10;0.00;;;;;;;5.68;100.00;98354.47;5066236;28;20024;-77
2023/12/21 02:51:33;;;;;;;0.00;0.00;;;;;;;5.75;100.00;98347.38;5064867;28;20016;-77
2023/12/21 02:53:59;;;;;;;0.03;0.00;;;;;;;5.55;100.00;98303.31;5067352;28;20021;-77
2023/12/21 02:56:24;;;;;;;0.10;0.00;;;;;;;5.71;100.00;98321.91;5068292;28;20039;-75
2023/12/21 02:58:49;;;;;;;0.00;0.00;;;;;;;5.72;100.00;98305.63;5070367;28;20028;-77
2023/12/21 03:01:15;;;;;;;0.00;0.00;;;;;;;5.71;100.00;98290.56;5059628;28;20025;-77
2023/12/21 03:03:40;;;;;;;0.20;0.08;;;;;;;5.69;100.00;98271.13;5076922;28;20284;-77
2023/12/21 03:06:05;;;;;;;0.20;0.03;;;;;;;5.67;100.00;98286.56;5083054;28;20021;-77
2023/12/21 03:08:31;;;;;;;0.30;0.00;;;;;;;5.71;100.00;98289.69;5056519;28;20019;-77
2023/12/21 03:10:56;;;;;;;0.63;0.20;;;;;;;5.63;100.00;98289.78;5083356;28;20028;-76
2023/12/21 03:13:22;;;;;;;1.00;0.10;;;;;;;5.61;100.00;98260.47;5083388;28;20028;-76
2023/12/21 03:15:47;;;;;;;0.28;0.13;;;;;;;5.75;100.00;98279.44;5076581;28;20107;-76
2023/12/21 03:18:12;;;;;;;0.00;0.00;;;;;;;5.78;100.00;98273.69;5053228;28;20032;-77
2023/12/21 03:20:38;;;;;;;0.47;0.10;;;;;;;5.73;100.00;98263.50;5079376;28;20025;-77
2023/12/21 03:23:04;;;;;;;0.85;0.10;;;;;;;5.68;100.00;98263.25;5063337;28;20083;-77
2023/12/21 03:25:29;;;;;;;0.38;0.20;;;;;;;5.73;100.00;98276.94;5063357;28;20080;-77
2023/12/21 03:27:55;;;;;;;0.20;0.10;;;;;;;5.81;100.00;98270.63;5067469;28;20087;-78
2023/12/21 03:30:20;;;;;;;0.10;0.10;;;;;;;5.87;100.00;98267.22;5093403;28;20205;-77
2023/12/21 03:32:45;;;;;;;0.05;0.00;;;;;;;5.77;100.00;98264.81;5082971;28;20024;-76
2023/12/21 03:35:11;;;;;;;0.28;0.00;;;;;;;5.83;100.00;98261.38;5101348;28;20093;-77
2023/12/21 03:37:37;;;;;;;0.25;0.00;;;;;;;5.81;100.00;98247.31;5081873;28;20033;-77
2023/12/21 03:40:03;;;;;;;0.00;0.00;;;;;;;5.75;100.00;98250.75;5078940;28;20029;-78
2023/12/21 03:42:29;;;;;;;0.03;0.00;;;;;;;5.81;100.00;98254.53;5065438;28;20035;-77
2023/12/21 03:44:54;;;;;;;0.00;0.00;;;;;;;5.82;100.00;98270.47;5069064;28;20032;-77
2023/12/21 03:47:19;;;;;;;0.10;0.00;;;;;;;5.71;100.00;98262.84;5070966;28;20032;-77
2023/12/21 03:49:45;;;;;;;0.35;0.00;;;;;;;5.46;100.00;98246.22;5055119;28;20237;-77
2023/12/21 03:52:10;;;;;;;0.10;0.10;;;;;;;5.49;100.00;98260.09;5064897;28;20016;-78
2023/12/21 03:54:35;;;;;;;0.32;0.20;;;;;;;5.34;100.00;98263.78;5076874;28;20031;-77
2023/12/21 03:57:01;;;;;;;0.17;0.08;;;;;;;5.35;100.00;98268.97;5103016;28;20024;-77
2023/12/21 03:59:26;;;;;;;0.43;0.00;;;;;;;5.26;100.00;98248.59;5066017;28;20032;-78
2023/12/21 04:01:52;;;;;;;0.20;0.10;;;;;;;5.20;100.00;98249.34;5059212;28;20024;-77
2023/12/21 04:04:17;;;;;;;0.00;0.00;;;;;;;5.19;100.00;98247.69;5076186;28;20059;-77
2023/12/21 04:06:43;;;;;;;0.20;0.00;;;;;;;5.22;100.00;98268.78;5098722;28;20104;-77
2023/12/21 04:09:08;;;;;;;0.32;0.00;;;;;;;5.22;100.00;98252.69;5071060;28;20029;-77
2023/12/21 04:11:33;;;;;;;0.20;0.10;;;;;;;5.20;100.00;98249.34;5066219;28;20102;-78
2023/12/21 04:13:59;;;;;;;0.00;0.00;;;;;;;5.09;100.00;98210.41;5085327;28;20054;-78
2023/12/21 04:16:24;;;;;;;1.08;0.08;;;;;;;5.22;100.00;98244.63;5067252;28;20016;-79
2023/12/21 04:18:49;;;;;;;2.53;0.15;;;;;;;5.14;100.00;98213.38;5068313;28;20027;-78
2023/12/21 04:21:15;;;;;;;0.00;0.00;;;;;;;5.32;100.00;98234.47;5079459;28;20039;-81
2023/12/21 04:23:40;;;;;;;0.55;0.10;;;;;;;5.41;100.00;98209.22;5067017;28;20111;-78
2023/12/21 04:26:06;;;;;;;2.17;0.00;;;;;;;5.41;100.00;98224.47;5069222;28;20021;-80
2023/12/21 04:28:31;;;;;;;0.10;0.08;;;;;;;5.20;100.00;98227.88;5065418;28;20021;-80
2023/12/21 04:30:56;;;;;;;1.55;0.00;;;;;;;5.16;100.00;98205.13;5078988;28;20016;-78
2023/12/21 04:33:22;;;;;;;1.30;0.10;;;;;;;5.18;100.00;98216.50;5081207;28;20028;-79
2023/12/21 04:35:47;;;;;;;0.00;0.00;;;;;;;5.12;100.00;98193.94;5065220;28;20020;-79
2023/12/21 04:38:13;;;;;;;0.03;0.00;;;;;;;5.10;100.00;98184.41;5071796;28;20028;-78
2023/12/21 04:40:38;;;;;;;0.20;0.03;;;;;;;5.11;100.00;98196.78;5067714;28;20024;-81
2023/12/21 04:43:05;;;;;;;0.50;0.15;;;;;;;5.20;100.00;98217.16;5088721;28;20024;-77
2023/12/21 04:45:31;;;;;;;0.77;0.10;;;;;;;5.08;100.00;98194.47;5071489;28;20020;-79
2023/12/21 04:47:56;;;;;;;0.55;0.10;;;;;;;5.17;100.00;98201.44;5073623;28;20020;-78
2023/12/21 04:50:21;;;;;;;0.00;0.00;;;;;;;5.15;100.00;98215.03;5080146;28;20369;-78
2023/12/21 04:52:51;;;;;;;0.20;0.10;;;;;;;5.15;100.00;98200.78;5065105;28;20084;-81
2023/12/21 04:55:17;;;;;;;0.15;0.00;;;;;;;5.20;100.00;98196.53;5082262;28;20126;-80
2023/12/21 04:57:42;;;;;;;0.28;0.10;;;;;;;5.12;100.00;98177.84;5066610;28;20040;-78
2023/12/21 05:00:08;;;;;;;0.25;0.10;;;;;;;5.13;100.00;98167.94;5073013;28;20009;-75
2023/12/21 05:02:34;;;;;;;0.10;0.10;;;;;;;5.07;100.00;98157.97;5071139;28;20044;-76
2023/12/21 05:05:06;;;;;;;0.10;0.10;;;;;;;5.11;100.00;98173.53;5067698;28;20024;-80
2023/12/21 05:07:53;;;;;;;0.10;0.00;;;;;;;5.21;100.00;98192.84;5095967;28;20052;-78
2023/12/21 05:10:18;;;;;;;0.00;0.00;;;;;;;5.16;100.00;98175.63;5054416;28;20060;-80
2023/12/21 05:12:43;;;;;;;0.10;0.10;;;;;;;5.18;100.00;98181.66;5059759;28;20032;-79
2023/12/21 05:15:09;;;;;;;0.10;0.00;;;;;;;5.12;100.00;98167.13;5088298;28;20032;-80
2023/12/21 05:17:34;;;;;;;0.80;0.10;;;;;;;5.15;100.00;98155.19;5061873;28;20081;-77
2023/12/21 05:20:00;;;;;;;0.10;0.08;;;;;;;5.09;100.00;98146.06;5077328;28;20078;-79
2023/12/21 05:22:25;;;;;;;0.80;0.10;;;;;;;5.38;100.00;98177.41;5069627;28;20092;-76
2023/12/21 05:24:50;;;;;;;0.00;0.00;;;;;;;5.35;100.00;98164.34;5050106;28;20230;-78
2023/12/21 05:27:16;;;;;;;0.00;0.00;;;;;;;5.33;100.00;98173.59;5073788;28;20070;-77
2023/12/21 05:29:42;;;;;;;0.10;0.10;;;;;;;5.32;100.00;98156.69;5081023;28;20222;-80
2023/12/21 05:32:07;;;;;;;1.65;0.10;;;;;;;5.33;100.00;98150.28;5074634;28;20107;-79
2023/12/21 05:34:33;;;;;;;0.17;0.00;;;;;;;5.20;100.00;98125.97;5068601;28;20385;-77
2023/12/21 05:36:59;;;;;;;1.33;0.10;;;;;;;5.32;100.00;98129.88;5064116;28;20299;-76
2023/12/21 05:39:25;;;;;;;1.55;0.10;;;;;;;5.41;100.00;98144.00;5065874;28;20024;-76
2023/12/21 05:41:53;;;;;;;0.00;0.00;;;;;;;5.41;100.00;98147.50;5066264;28;20052;-82
2023/12/21 05:44:18;;;;;;;0.10;0.10;;;;;;;5.37;100.00;98148.06;5062093;28;20469;-77
2023/12/21 05:46:43;;;;;;;0.38;0.10;;;;;;;5.43;100.00;98158.91;5065775;28;20138;-79
2023/12/21 05:49:09;;;;;;;0.28;0.00;;;;;;;5.43;100.00;98152.69;5082286;28;20017;-79
2023/12/21 05:51:34;;;;;;;0.40;0.20;;;;;;;5.43;100.00;98133.94;5062876;28;20020;-78
2023/12/21 05:54:00;;;;;;;0.80;0.13;;;;;;;5.48;100.00;98134.19;5070343;28;20017;-77
2023/12/21 05:56:25;;;;;;;0.03;0.00;;;;;;;5.48;100.00;98132.34;5066824;28;20142;-78
2023/12/21 05:58:50;;;;;;;0.35;0.13;;;;;;;5.55;100.00;98136.94;5061053;28;20346;-78
2023/12/21 06:01:16;;;;;;;0.13;0.03;;;;;;;5.53;100.00;98113.00;5069181;28;20644;-77
2023/12/21 06:03:41;;;;;;;0.10;0.10;;;;;;;5.43;100.00;98088.31;5067232;28;20039;-78
2023/12/21 06:06:07;;;;;;;0.28;0.10;;;;;;;5.65;100.00;98107.97;5066505;28;20028;-78
2023/12/21 06:08:32;;;;;;;0.13;0.10;;;;;;;5.63;100.00;98091.22;5047956;28;20020;-82
2023/12/21 06:10:57;;;;;;;0.30;0.00;;;;;;;5.67;100.00;98090.66;5066042;28;20024;-78
2023/12/21 06:13:23;;;;;;;0.20;0.00;;;;;;;5.72;100.00;98098.16;5059530;28;20059;-77
2023/12/21 06:15:48;;;;;;;0.00;0.00;;;;;;;5.67;100.00;98063.81;5073636;28;20028;-76
2023/12/21 06:18:13;;;;;;;0.77;0.10;;;;;;;5.72;100.00;98064.06;5077737;28;20028;-77
2023/12/21 06:20:38;;;;;;;1.13;0.10;;;;;;;5.81;100.00;98077.38;5067438;28;20042;-77
2023/12/21 06:23:04;;;;;;;0.25;0.08;;;;;;;5.76;100.00;98061.84;5068585;28;20103;-78
2023/12/21 06:25:29;;;;;;;2.15;0.50;;;;;;;5.81;100.00;98047.84;5076540;28;20027;-78
2023/12/21 06:27:55;;;;;;;0.47;0.22;;;;;;;5.84;100.00;98051.00;5081692;28;20028;-77
2023/12/21 06:30:20;;;;;;;0.25;0.20;;;;;;;5.90;100.00;98057.44;5078327;28;20352;-75
2023/12/21 06:32:45;;;;;;;0.20;0.10;;;;;;;5.92;100.00;98053.56;5056114;28;20108;-77
2023/12/21 06:35:11;;;;;;;0.10;0.10;;;;;;;5.92;100.00;98045.50;5061847;28;20221;-75
2023/12/21 06:37:36;;;;;;;0.75;0.20;;;;;;;5.90;100.00;98044.03;5083657;28;20033;-78
2023/12/21 06:40:04;;;;;;;0.50;0.20;;;;;;;5.95;100.00;98038.94;5064852;28;20244;-80
2023/12/21 06:42:29;;;;;;;0.20;0.20;;;;;;;5.97;100.00;98014.56;5058235;28;20024;-77
2023/12/21 06:44:54;;;;;;;0.47;0.20;;;;;;;5.96;100.00;98018.28;5056139;28;20038;-77
2023/12/21 06:47:22;;;;;;;0.10;0.00;;;;;;;5.92;100.00;98025.84;5059917;28;20028;-78
2023/12/21 06:49:47;;;;;;;0.43;0.25;;;;;;;5.98;100.00;98016.25;5074882;28;20088;-77
2023/12/21 06:52:12;;;;;;;0.35;0.20;;;;;;;6.07;100.00;98031.19;5059502;28;20218;-77
2023/12/21 06:54:38;;;;;;;0.00;0.00;;;;;;;6.20;100.00;98017.88;5081218;28;20047;-82
2023/12/21 06:57:03;;;;;;;0.00;0.00;;;;;;;6.15;100.00;98013.06;5068647;28;20059;-77
2023/12/21 06:59:30;;;;;;;0.00;0.00;;;;;;;6.23;100.00;98017.47;5085490;28;20024;-78
2023/12/21 07:01:55;;;;;;;0.50;0.08;;;;;;;6.09;100.00;97976.25;5057602;28;20025;-76
2023/12/21 07:04:20;;;;;;;0.35;0.20;;;;;;;6.31;100.00;98017.34;5066754;28;20121;-77
2023/12/21 07:06:46;;;;;;;0.00;0.00;;;;;;;6.29;100.00;98003.28;5057789;28;20249;-76
2023/12/21 07:09:11;;;;;;;0.30;0.10;;;;;;;6.27;100.00;97999.94;5064359;28;20028;-77
2023/12/21 07:11:36;;;;;;;0.10;0.05;;;;;;;6.32;100.00;97992.13;5076792;28;20027;-78
2023/12/21 07:14:02;;;;;;;0.35;0.10;;;;;;;6.19;100.00;97962.50;5077450;28;20031;-76
2023/12/21 07:16:27;;;;;;;0.10;0.05;;;;;;;6.29;100.00;97984.47;5064623;28;20225;-78
2023/12/21 07:18:52;;;;;;;0.68;0.20;;;;;;;6.25;100.00;97975.13;5070376;28;20029;-78
2023/12/21 07:21:17;;;;;;;0.20;0.10;;;;;;;6.45;100.00;97988.72;5079485;28;20025;-78
2023/12/21 07:23:43;;;;;;;0.10;0.10;;;;;;;6.33;100.00;97977.66;5074346;28;20064;-76
2023/12/21 07:26:10;;;;;;;0.05;0.05;;;;;;;6.47;100.00;97994.72;5081634;28;20020;-75
2023/12/21 07:28:37;;;;;;;0.13;0.08;;;;;;;6.51;100.00;98000.53;5070044;28;20097;-79
2023/12/21 07:31:03;;;;;;;0.15;0.00;;;;;;;6.23;100.00;97949.50;5048870;28;20032;-78
2023/12/21 07:33:28;;;;;;;0.63;0.10;;;;;;;6.51;100.00;97987.91;5065705;28;20218;-77
2023/12/21 07:35:53;;;;;;;0.10;0.10;;;;;;;6.43;100.00;97960.38;5065251;28;20020;-77
2023/12/21 07:38:19;;;;;;;0.05;0.05;;;;;;;6.51;100.00;97973.66;5066157;28;20028;-79
2023/12/21 07:40:44;;;;;;;0.43;0.10;;;;;;;6.32;100.00;97935.72;5063835;28;20024;-77
2023/12/21 07:43:10;;;;;;;0.20;0.10;;;;;;;6.55;100.00;97969.56;5059784;28;20020;-81
2023/12/21 07:45:35;;;;;;;1.02;0.20;;;;;;;6.53;100.00;97977.81;5048714;28;20268;-78
2023/12/21 07:48:00;;;;;;;0.55;0.28;;;;;;;6.49;100.00;97967.63;5082859;28;20050;-78
2023/12/21 07:50:27;;;;;;;0.25;0.10;;;;;;;6.62;100.00;97970.41;5080437;28;20065;-80
2023/12/21 07:52:56;;;;;;;0.32;0.10;;;;;;;6.48;100.00;97937.25;5063383;28;20024;-74
2023/12/21 07:55:22;;;;;;;0.55;0.20;;;;;;;6.60;100.00;97937.50;5059322;28;20021;-77
2023/12/21 07:57:47;;;;;;;1.15;0.10;;;;;;;6.65;100.00;97943.13;5065676;28;20037;-76
2023/12/21 08:00:13;;;;;;;0.32;0.10;;;;;;;6.51;100.00;97915.34;5073122;28;20028;-78
2023/12/21 08:02:44;;;;;;;1.05;0.43;;;;;;;6.63;100.00;97934.44;5082594;28;20291;-78
2023/12/21 08:05:10;;;;;;;0.25;0.10;;;;;;;6.46;100.00;97906.25;5081378;28;20016;-78
2023/12/21 08:07:35;;;;;;;0.10;0.10;;;;;;;6.72;100.00;97946.69;5065920;28;20024;-77
2023/12/21 08:10:01;;;;;;;0.35;0.20;;;;;;;6.70;100.00;97921.84;5061224;28;20336;-76
2023/12/21 08:12:27;;;;;;;0.20;0.10;;;;;;;6.82;100.00;97932.03;5075929;28;20087;-75
2023/12/21 08:14:52;;;;;;;0.20;0.15;;;;;;;6.68;100.00;97915.88;5077046;28;20225;-78
2023/12/21 08:17:19;;;;;;;0.30;0.20;;;;;;;6.66;100.00;97912.53;5056867;28;20051;-76
2023/12/21 08:19:44;;;;;;;0.17;0.10;;;;;;;6.81;100.00;97933.88;5064207;28;20025;-76
2023/12/21 08:22:10;;;;;;;0.20;0.10;;;;;;;6.67;100.00;97916.06;5076184;28;20048;-78
2023/12/21 08:24:35;;;;;;;0.40;0.20;;;;;;;6.78;100.00;97935.09;5064568;28;20376;-77
2023/12/21 08:27:01;;;;;;;0.35;0.25;;;;;;;6.84;100.00;97935.34;5081645;28;20024;-79
2023/12/21 08:29:26;;;;;;;0.40;0.20;;;;;;;6.75;100.00;97930.13;5082908;28;20054;-80
2023/12/21 08:31:52;;;;;;;0.73;0.40;;;;;;;6.93;100.00;97947.59;5073458;28;20017;-78
2023/12/21 08:34:17;;;;;;;0.90;0.43;;;;;;;6.86;100.00;97938.66;5083597;28;20085;-82
2023/12/21 08:36:43;;;;;;;0.22;0.20;;;;;;;6.95;100.00;97938.28;5074967;28;20026;-79
2023/12/21 08:39:08;;;;;;;1.35;0.22;;;;;;;6.97;100.00;97930.88;5064607;28;20096;-78
2023/12/21 08:41:33;;;;;;;0.82;0.20;;;;;;;6.83;100.00;97907.63;5079565;28;20028;-80
2023/12/21 08:43:59;;;;;;;0.90;0.30;;;;;;;6.95;100.00;97921.34;5080097;28;20092;-80
2023/12/21 08:46:24;;;;;;;0.52;0.20;;;;;;;7.00;100.00;97933.13;5080916;28;20094;-80
2023/12/21 08:48:49;;;;;;;0.45;0.10;;;;;;;7.05;100.00;97920.94;5066123;28;20021;-83
2023/12/21 08:51:16;;;;;;;2.05;0.30;;;;;;;7.05;100.00;97905.66;5064355;28;20103;-79
2023/12/21 08:53:42;;;;;;;2.13;0.20;;;;;;;6.98;100.00;97881.41;5064779;28;20051;-85
2023/12/21 08:56:07;;;;;;;1.00;0.20;;;;;;;7.14;100.00;97907.09;5069515;28;20091;-78
2023/12/21 08:58:33;;;;;;;0.10;0.10;;;;;;;7.02;100.00;97868.38;5065267;28;20012;-80
2023/12/21 09:00:58;;;;;;;0.03;0.03;;;;;;;7.07;100.00;97871.28;5078450;28;20024;-78
2023/12/21 09:03:24;;;;;;;1.85;0.10;;;;;;;7.06;100.00;97866.94;5073126;28;20021;-80
2023/12/21 09:05:49;;;;;;;0.10;0.10;;;;;;;7.30;100.00;97880.84;5059984;28;20044;-80
2023/12/21 09:08:15;;;;;;;0.28;0.20;;;;;;;7.23;100.00;97876.31;5050428;28;20016;-79
2023/12/21 09:10:40;;;;;;;0.30;0.20;;;;;;;7.28;100.00;97872.16;5059032;28;20044;-78
2023/12/21 09:13:26;;;;;;;0.20;0.10;;;;;;;7.35;100.00;97867.63;5065819;28;20274;-88
2023/12/21 09:15:51;;;;;;;1.25;0.30;;;;;;;7.27;100.00;97855.19;5077372;28;20082;-81
2023/12/21 09:18:18;;;;;;;0.43;0.22;;;;;;;7.25;100.00;97836.56;5070375;28;20020;-78
2023/12/21 09:20:43;;;;;;;0.30;0.10;;;;;;;7.39;100.00;97839.28;5066038;28;20028;-81
2023/12/21 09:23:09;;;;;;;0.22;0.15;;;;;;;7.34;100.00;97825.63;5059885;28;20024;-78
2023/12/21 09:25:34;;;;;;;0.30;0.20;;;;;;;7.32;100.00;97803.47;5069817;28;20025;-76
2023/12/21 09:28:02;;;;;;;0.73;0.20;;;;;;;7.55;100.00;97820.00;5092591;28;20070;-82
2023/12/21 09:30:29;;;;;;;0.88;0.20;;;;;;;7.54;100.00;97828.28;5080922;28;20017;-81
2023/12/21 09:32:54;;;;;;;0.50;0.20;;;;;;;7.62;100.00;97826.22;5081750;28;20020;-80
2023/12/21 09:35:20;;;;;;;0.47;0.30;;;;;;;7.45;100.00;97792.69;5070557;28;20322;-85
2023/12/21 09:37:45;;;;;;;0.35;0.10;;;;;;;7.50;100.00;97784.00;5067145;28;20036;-80
2023/12/21 09:40:12;;;;;;;0.88;0.20;;;;;;;7.47;100.00;97796.00;5066917;28;20032;-78
2023/12/21 09:42:49;;;;;;;0.70;0.20;;;;;;;7.49;100.00;97766.19;5059993;28;20059;-78
2023/12/21 09:45:16;;;;;;;0.73;0.20;;;;;;;7.58;100.00;97776.53;5060420;28;20031;-77
2023/12/21 09:47:43;;;;;;;0.30;0.20;;;;;;;7.59;100.00;97775.47;5082792;28;20047;-79
2023/12/21 09:50:08;;;;;;;0.30;0.10;;;;;;;7.77;100.00;97788.28;5084224;28;20213;-79
2023/12/21 09:52:37;;;;;;;0.68;0.35;;;;;;;7.67;100.00;97780.63;5079587;28;20043;-76
2023/12/21 09:55:05;;;;;;;0.60;0.20;;;;;;;7.68;100.00;97755.38;5074252;28;20031;-78
2023/12/21 09:57:34;;;;;;;0.10;0.00;;;;;;;7.79;100.00;97782.69;5083673;28;20016;-77
2023/12/21 10:00:02;;;;;;;0.30;0.00;;;;;;;7.80;100.00;97795.13;5078672;28;20125;-75
2023/12/21 10:02:30;;;;;;;0.50;0.05;;;;;;;7.69;100.00;97793.91;5061989;28;20048;-77
2023/12/21 10:04:56;;;;;;;0.70;0.30;;;;;;;7.77;100.00;97784.78;5062827;28;20309;-77
2023/12/21 10:07:22;;;;;;;1.40;0.50;;;;;;;7.82;100.00;97766.13;5060988;28;20024;-77
2023/12/21 10:09:48;;;;;;;6.03;0.32;;;;;;;7.82;100.00;97755.34;5085782;28;20027;-79
2023/12/21 10:12:13;;;;;;;1.33;0.05;;;;;;;7.79;100.00;97718.09;5067248;28;20016;-79
2023/12/21 10:14:39;;;;;;;2.45;0.10;;;;;;;7.87;100.00;97717.84;5085895;28;20020;-82
2023/12/21 10:17:09;;;;;;;0.08;0.08;;;;;;;7.90;100.00;97709.34;5061792;28;20021;-80
2023/12/21 10:19:35;;;;;;;0.10;0.10;;;;;;;7.95;100.00;97704.13;5083375;28;20020;-79
2023/12/21 10:22:01;;;;;;;0.90;0.05;;;;;;;7.99;100.00;97691.91;5055166;28;20032;-80
2023/12/21 10:24:26;;;;;;;0.20;0.00;;;;;;;7.93;100.00;97668.50;5065427;28;20260;-80
2023/12/21 10:26:52;;;;;;;0.45;0.20;;;;;;;8.09;100.00;97700.31;5066337;28;20032;-79
2023/12/21 10:29:18;;;;;;;0.30;0.10;;;;;;;8.10;100.00;97669.69;5066874;28;20340;-85
2023/12/21 10:31:45;;;;;;;0.10;0.10;;;;;;;7.97;100.00;97634.72;5080964;28;20039;-81
2023/12/21 10:34:11;;;;;;;0.20;0.10;;;;;;;8.18;100.00;97678.56;5079594;28;20093;-81
2023/12/21 10:36:44;;;;;;;0.88;0.40;;;;;;;8.20;100.00;97639.56;5063357;28;20036;-83
2023/12/21 10:39:14;;;;;;;1.20;0.40;;;;;;;8.23;100.00;97625.66;5063857;28;20021;-82
2023/12/21 10:41:43;;;;;;;1.48;0.40;;;;;;;8.26;100.00;97619.03;5059838;28;20371;-82
2023/12/21 10:44:10;;;;;;;;;;;;;;;8.35;100.00;97612.31;5067746;28;20033;-82
2023/12/21 10:46:37;;;;;;;1.02;0.32;;;;;;;8.17;100.00;97586.09;5074837;28;19950;-82
2023/12/21 10:49:04;;;;;;;0.45;0.13;;;;;;;8.19;100.00;97591.28;5084528;28;20024;-82
2023/12/21 10:51:35;;;;;;;0.63;0.28;;;;;;;8.30;100.00;97604.06;5063518;28;20036;-82
2023/12/21 10:54:02;;;;;;;0.03;0.03;;;;;;;8.18;100.00;97595.03;5067454;28;20027;-83
2023/12/21 10:56:27;;;;;;;0.05;0.00;;;;;;;8.20;100.00;97590.22;5061997;28;20344;-82
2023/12/21 10:58:55;;;;;;;1.45;0.10;;;;;;;7.99;100.00;97565.31;5056059;28;20113;-82
2023/12/21 11:01:21;;;;;;;0.25;0.08;;;;;;;8.13;100.00;97566.88;5080532;28;20017;-82
2023/12/21 11:03:48;;;;;;;0.30;0.10;;;;;;;8.23;100.00;97566.38;5070547;28;20023;-83
2023/12/21 11:06:16;;;;;;;0.40;0.30;;;;;;;8.21;100.00;97560.38;5071770;28;20034;-76
2023/12/21 11:08:44;;;;;;;0.55;0.25;;;;;;;8.23;100.00;97544.03;5078415;28;20036;-77
2023/12/21 11:11:11;;;;;;;0.80;0.28;;;;;;;8.28;100.00;97515.38;5098988;22;20036;-76
2023/12/21 11:13:40;;;;;;;0.65;0.35;;;;;;;8.37;100.00;97518.59;5071480;28;20029;-75
2023/12/21 11:16:08;;;;;;;0.13;0.10;;;;;;;8.34;100.00;97505.56;5076510;28;20043;-75
2023/12/21 11:18:34;;;;;;;0.45;0.20;;;;;;;8.31;100.00;97477.19;5076483;28;20240;-74
2023/12/21 11:21:02;;;;;;;0.45;0.10;;;;;;;8.34;100.00;97487.53;5072002;28;20318;-74
2023/12/21 11:23:28;;;;;;;1.23;0.20;;;;;;;8.37;100.00;97488.94;5062851;28;20332;-74
2023/12/21 11:25:57;;;;;;;2.00;0.20;;;;;;;8.40;100.00;97482.31;5055961;28;20018;-76
2023/12/21 11:28:32;;;;;;;0.40;0.10;;;;;;;8.44;100.00;97495.16;5060995;28;20155;-75